Latest Weather Observations for Cape Borda

IDS60801

Issued at 2:35 pm CST Wednesday 17 September 2014 (issued every 30 minutes, with the page automatically refreshed every 10 minutes)

About weather observations | Map of weather stations | Latest weather observations for SA | Other Formats
Station Details ID: 022823 Name: CAPE BORDA Lat: -35.75 Lon: 136.60 Height: 158.0 m
Data from the previous 72 hours. | See also: Recent months at Cape Borda
Date/Time
CST
Temp
°C
App
Temp
°C
Dew
Point
Rel
Hum
%
Delta-T
°C
Wind Press
QNH
hPa
Press
MSL
hPa
Rain
since 9 am
mm
Dir
 
Spd
km/h
Gust
km/h
Spd
kts
Gust
kts
17/02:30pm 13.8 7.7 2.5 46 5.0 SW 24 35 13 19 1023.0 - 0.0
17/02:00pm 14.5 8.5 3.5 47 5.0 SW 24 33 13 18 1022.7 - 0.0
17/01:30pm 14.1 8.1 3.2 48 4.9 SW 24 35 13 19 1022.4 - 0.0
17/01:00pm 13.1 8.1 4.4 55 4.0 S 20 28 11 15 1022.5 - 0.0
17/12:30pm 14.1 9.1 4.6 52 4.4 S 20 28 11 15 1022.6 - 0.0
17/12:00pm 13.9 7.6 3.8 50 4.6 SW 26 37 14 20 1022.9 1023.0 0.0
17/11:30am 12.8 6.2 2.3 49 4.6 SW 26 37 14 20 1022.7 - 0.0
17/11:00am 12.7 6.6 3.0 51 4.3 SSW 24 39 13 21 1022.6 - 0.0
17/10:30am 13.8 8.1 4.8 54 4.2 SW 24 33 13 18 1022.6 - 0.0
17/10:00am 13.4 7.6 2.5 47 4.8 SW 22 32 12 17 1022.5 - 0.0
17/09:30am 12.8 6.9 3.7 54 4.1 SW 24 33 13 18 1022.2 - 0.0
17/09:00am 12.4 6.2 4.3 57 3.7 SSW 26 37 14 20 1021.8 1021.9 1.6
17/08:30am 11.8 6.1 5.1 63 3.1 SW 24 33 13 18 1021.6 - 1.6
17/08:00am 11.1 6.3 5.7 69 2.5 SSW 20 30 11 16 1021.4 - 1.6
17/07:30am 10.4 5.4 4.6 67 2.6 SSW 20 33 11 18 1020.9 - 1.6
17/07:00am 11.1 5.6 6.0 71 2.4 SW 24 39 13 21 1020.3 - 1.6
17/06:30am 10.4 4.8 5.4 71 2.3 SSW 24 35 13 19 1020.0 - 1.6
17/06:00am 10.6 5.3 6.8 77 1.8 SW 24 39 13 21 1019.9 1020.0 1.6
17/05:30am 10.5 5.1 6.5 76 1.9 SW 24 33 13 18 1019.4 - 1.4
17/05:00am 10.6 5.7 6.8 77 1.8 SW 22 35 12 19 1019.1 - 1.4
17/04:30am 10.5 5.0 6.0 74 2.1 SW 24 35 13 19 1019.0 - 1.4
17/04:00am 10.1 5.0 6.2 77 1.8 SW 22 33 12 18 1018.9 - 1.4
17/03:30am 10.7 5.9 7.4 80 1.6 SW 22 32 12 17 1018.8 - 1.4
17/03:00am 10.3 6.0 7.8 84 1.2 WSW 20 28 11 15 1018.7 1018.8 1.4
17/02:30am 10.4 4.9 7.7 83 1.3 SW 26 37 14 20 1018.9 - 1.4
17/02:00am 10.3 6.7 8.5 89 0.9 WSW 17 24 9 13 1019.0 - 1.4
17/01:30am 9.7 5.3 7.4 85 1.1 WSW 20 30 11 16 1019.2 - 1.4
17/01:00am 11.3 6.6 7.8 79 1.7 WSW 22 32 12 17 1019.2 - 0.8
17/12:30am 11.0 5.8 7.3 78 1.8 WSW 24 35 13 19 1019.2 - 0.8
17/12:00am 11.3 5.5 7.8 79 1.7 WSW 28 41 15 22 1019.3 1019.4 0.8
 
Date/Time
CST
Temp
°C
App
Temp
°C
Dew
Point
Rel
Hum
%
Delta-T
°C
Wind Press
QNH
hPa
Press
MSL
hPa
Rain
since 9 am
mm
Dir
 
Spd
km/h
Gust
km/h
Spd
kts
Gust
kts
16/11:30pm 10.5 7.4 8.7 89 0.9 W 15 22 8 12 1019.3 - 0.8
16/11:00pm 10.6 6.1 8.6 87 1.0 WSW 22 33 12 18 1019.2 - 0.8
16/10:30pm 11.6 6.6 8.2 79 1.7 W 24 35 13 19 1019.3 - 0.6
16/10:00pm 11.4 6.1 6.6 72 2.3 WSW 24 32 13 17 1019.4 - 0.6
16/09:30pm 11.5 6.6 6.9 73 2.2 WSW 22 32 12 17 1019.3 - 0.6
16/09:00pm 11.3 6.4 6.7 73 2.2 WSW 22 32 12 17 1019.3 1019.4 0.6
16/08:30pm 11.2 6.1 6.1 71 2.4 WSW 22 32 12 17 1019.0 - 0.6
16/08:00pm 11.2 6.0 5.4 67 2.7 SW 22 32 12 17 1018.8 - 0.6
16/07:30pm 11.5 5.9 5.2 65 2.9 SW 24 35 13 19 1018.4 - 0.6
16/07:00pm 11.3 6.1 3.7 59 3.4 SW 20 32 11 17 1017.9 - 0.6
16/06:30pm 11.3 5.3 3.1 57 3.6 SW 24 35 13 19 1017.7 - 0.6
16/06:00pm 11.3 5.8 4.2 61 3.2 SW 22 32 12 17 1017.8 1017.9 0.6
16/05:30pm 11.2 4.4 3.3 58 3.5 SW 28 39 15 21 1017.5 - 0.6
16/05:00pm 11.6 5.7 3.8 59 3.5 SW 24 39 13 21 1017.3 - 0.6
16/04:30pm 12.1 6.2 3.9 57 3.7 WSW 24 39 13 21 1017.2 - 0.6
16/04:00pm 12.4 5.7 3.8 55 3.9 SW 28 39 15 21 1017.0 - 0.6
16/03:30pm 12.8 6.4 5.3 60 3.5 SW 28 39 15 21 1016.8 - 0.6
16/03:00pm 13.0 6.3 5.8 61 3.4 SW 30 39 16 21 1016.8 1016.9 0.6
16/02:30pm 13.7 8.1 7.2 65 3.2 SW 26 35 14 19 1016.7 - 0.6
16/02:00pm 13.1 6.8 7.4 68 2.8 SW 30 41 16 22 1016.7 - 0.6
16/01:30pm 13.4 7.2 8.0 70 2.7 WSW 30 44 16 24 1016.8 - 0.6
16/01:00pm 14.0 7.4 6.1 59 3.8 WSW 30 39 16 21 1017.0 - 0.6
16/12:30pm 14.3 7.7 6.0 57 4.0 WSW 30 41 16 22 1017.4 - 0.6
16/12:00pm 14.5 8.7 7.9 64 3.3 WSW 28 39 15 21 1017.7 1017.8 0.6
16/11:30am 13.7 8.7 7.9 68 2.9 WSW 24 35 13 19 1018.1 - 0.6
16/11:00am 13.4 8.2 8.9 74 2.3 SW 26 35 14 19 1018.1 - 0.6
16/10:30am 11.9 6.6 10.0 88 1.0 SW 28 39 15 21 1018.1 - 0.6
16/10:00am 11.8 8.4 10.6 92 0.6 WSW 19 33 10 18 1018.2 - 0.6
16/09:30am 11.6 8.6 10.6 94 0.5 WSW 17 24 9 13 1018.3 - 0.6
16/09:00am 13.2 10.3 9.5 78 1.9 W 15 19 8 10 1018.3 1018.4 0.4
16/08:30am 12.1 8.1 9.1 82 1.5 W 20 35 11 19 1018.2 - 0.4
16/08:00am 12.5 8.7 8.9 79 1.8 W 19 24 10 13 1018.0 - 0.4
16/07:30am 12.4 8.8 8.4 76 2.0 W 17 26 9 14 1017.9 - 0.4
16/07:00am 12.2 8.7 8.6 78 1.8 W 17 22 9 12 1017.7 - 0.4
16/06:30am 11.6 8.1 8.6 82 1.5 WSW 17 26 9 14 1017.6 - 0.4
16/06:00am 11.9 7.9 8.3 78 1.8 WSW 19 26 10 14 1017.3 1017.4 0.4
16/05:30am 11.9 8.4 8.7 81 1.6 WSW 17 24 9 13 1017.1 - 0.4
16/05:00am 12.1 8.2 8.5 78 1.8 WSW 19 26 10 14 1017.1 - 0.4
16/04:30am 11.9 7.7 8.3 78 1.8 WSW 20 30 11 16 1017.0 - 0.4
16/04:00am 11.5 8.0 8.9 84 1.3 WSW 17 24 9 13 1017.1 - 0.4
16/03:30am 11.5 7.6 8.7 83 1.4 WSW 19 28 10 15 1016.9 - 0.4
16/03:00am 11.8 8.3 8.6 81 1.6 SW 17 24 9 13 1017.0 1017.1 0.4
16/02:30am 11.4 7.3 8.8 84 1.3 SW 20 30 11 16 1017.0 - 0.4
16/02:00am 11.2 7.8 9.0 86 1.1 SW 17 22 9 12 1017.3 - 0.4
16/01:30am 11.3 7.8 8.7 84 1.3 SW 17 24 9 13 1017.5 - 0.4
16/01:00am 11.6 7.8 9.0 84 1.3 SW 19 28 10 15 1017.7 - 0.4
16/12:30am 11.7 8.0 9.5 86 1.1 SW 19 26 10 14 1017.9 - 0.4
16/12:00am 10.8 7.3 8.6 86 1.1 SW 17 22 9 12 1017.9 1018.0 0.4
 
Date/Time
CST
Temp
°C
App
Temp
°C
Dew
Point
Rel
Hum
%
Delta-T
°C
Wind Press
QNH
hPa
Press
MSL
hPa
Rain
since 9 am
mm
Dir
 
Spd
km/h
Gust
km/h
Spd
kts
Gust
kts
15/11:30pm 11.0 7.6 9.2 89 0.9 SW 17 22 9 12 1018.1 - 0.4
15/11:00pm 11.4 7.6 9.2 86 1.1 SW 19 26 10 14 1018.1 - 0.4
15/10:30pm 11.5 7.8 9.5 87 1.0 SW 19 26 10 14 1018.2 - 0.4
15/10:00pm 11.6 8.0 9.8 89 0.9 SSW 19 28 10 15 1018.4 - 0.4
15/09:30pm 11.2 7.6 9.8 91 0.7 SSW 19 26 10 14 1018.4 - 0.4
15/09:00pm 10.8 7.6 9.8 93 0.5 SSW 17 20 9 11 1018.2 1018.3 0.2
15/08:30pm 10.7 7.4 9.7 93 0.5 S 17 22 9 12 1018.2 - 0.2
15/08:00pm 12.5 8.3 9.6 82 1.5 SW 22 33 12 18 1018.0 - 0.0
15/07:30pm 12.2 7.8 9.0 81 1.6 SSW 22 32 12 17 1018.0 - 0.0
15/07:00pm 12.3 7.5 8.7 79 1.8 SSW 24 35 13 19 1017.6 - 0.0
15/06:30pm 12.8 8.2 9.5 80 1.7 SW 24 35 13 19 1017.4 - 0.0
15/06:00pm 13.0 7.5 9.1 77 2.0 SSW 28 39 15 21 1016.9 1017.0 0.0
15/05:30pm 13.4 8.1 8.4 72 2.5 SSW 26 37 14 20 1016.4 - 0.0
15/05:00pm 14.1 8.0 8.3 68 2.9 SSW 30 43 16 23 1016.2 - 0.0
15/04:30pm 14.6 8.7 7.6 63 3.5 SSW 28 41 15 22 1016.0 - 0.0
15/04:00pm 15.1 9.0 8.2 63 3.5 SSW 30 43 16 23 1015.7 - 0.0
15/03:30pm 15.1 8.4 8.2 63 3.5 SSW 33 48 18 26 1015.7 - 0.0
15/03:00pm 15.6 9.0 8.6 63 3.6 SW 33 44 18 24 1015.8 1015.8 0.0
15/02:30pm 15.7 8.7 8.5 62 3.7 SSW 35 50 19 27 1015.5 - 0.0
15/02:00pm 16.1 9.7 9.4 64 3.5 SSW 33 43 18 23 1015.4 - 0.0
15/01:30pm 15.5 9.0 8.9 65 3.4 SSW 33 48 18 26 1015.4 - 0.0
15/01:16pm 15.3 9.4 9.1 66 3.2 S 30 48 16 26 1015.5 - 0.0
15/01:00pm 14.9 8.6 9.1 68 3.0 SSW 32 44 17 24 1015.4 - 0.0
15/12:30pm 16.3 10.5 9.6 64 3.5 SSW 30 43 16 23 1015.3 - 0.0
15/12:00pm 15.5 9.5 10.2 70 2.8 SSW 32 39 17 21 1015.2 1015.2 0.0
15/11:37am 15.7 10.1 10.2 70 2.9 S 30 48 16 26 1015.2 - 0.0
15/11:30am 15.2 9.1 9.9 70 2.8 S 32 48 17 26 1015.1 - 0.0
15/11:00am 15.1 8.9 10.0 71 2.7 S 33 48 18 26 1015.1 - 0.0
15/10:30am 15.7 10.5 11.5 76 2.3 S 30 44 16 24 1015.0 - 0.0
15/10:00am 14.6 9.3 11.2 80 1.8 S 30 44 16 24 1014.9 - 0.0
15/09:30am 14.0 8.3 11.0 82 1.6 S 32 44 17 24 1014.7 - 0.0
15/09:00am 13.8 7.7 10.6 81 1.7 S 33 48 18 26 1014.2 1014.2 0.0
15/08:30am 13.6 7.3 11.0 84 1.4 S 35 50 19 27 1013.3 - 0.0
15/08:00am 13.3 6.6 11.0 86 1.2 S 37 56 20 30 1013.2 - 0.0
15/07:30am 13.2 6.5 10.9 86 1.2 S 37 56 20 30 1012.7 - 0.0
15/07:12am 12.8 7.0 10.9 88 1.0 S 32 50 17 27 1012.3 - 0.0
15/07:00am 12.7 6.0 11.0 89 0.9 S 37 52 20 28 1012.1 - 0.0
15/06:35am 12.6 6.7 11.1 91 0.8 S 33 54 18 29 1011.6 - 0.0
15/06:30am 12.6 6.9 11.3 92 0.7 S 32 46 17 25 1011.5 - 0.0
15/06:07am 12.5 6.3 11.4 93 0.6 S 35 54 19 29 1011.2 - 0.0
15/06:00am 12.4 6.6 11.5 94 0.5 S 33 50 18 27 1011.1 1011.2 0.0
15/05:30am 12.5 5.5 11.4 93 0.6 S 39 59 21 32 1010.5 - 0.0
15/05:15am 12.5 6.7 11.6 94 0.5 S 33 52 18 28 1010.4 - 0.0
15/05:00am 12.5 6.9 11.6 94 0.5 S 32 44 17 24 1010.2 - 0.0
15/04:30am 12.5 7.0 11.8 95 0.4 S 32 44 17 24 1010.0 - 0.0
15/04:00am 12.5 6.4 11.9 96 0.3 S 35 50 19 27 1009.5 - 0.0
15/03:30am 12.8 7.2 12.1 95 0.4 SSW 33 44 18 24 1009.3 - 0.0
15/03:00am 12.9 8.1 11.8 93 0.6 S 28 41 15 22 1009.3 1009.3 0.0
15/02:30am 12.5 8.4 11.6 94 0.5 S 24 33 13 18 1009.2 - 0.0
15/02:00am 11.8 8.3 10.8 94 0.5 S 20 28 11 15 1009.4 - 0.0
15/01:30am 10.6 7.4 9.8 95 0.4 S 17 20 9 11 1009.6 - 0.0
15/01:00am 10.4 7.4 9.4 93 0.5 S 15 20 8 11 1009.8 - 0.0
15/12:30am 10.9 8.8 9.7 92 0.6 SSE 11 13 6 7 1010.1 - 0.0
15/12:00am 10.9 8.4 9.7 92 0.6 SE 13 15 7 8 1010.4 1010.4 0.0
 
Date/Time
CST
Temp
°C
App
Temp
°C
Dew
Point
Rel
Hum
%
Delta-T
°C
Wind Press
QNH
hPa
Press
MSL
hPa
Rain
since 9 am
mm
Dir
 
Spd
km/h
Gust
km/h
Spd
kts
Gust
kts
14/11:30pm 10.8 8.7 9.8 93 0.5 SE 11 15 6 8 1010.7 - 0.0
14/11:00pm 10.5 7.6 9.5 93 0.5 ESE 15 19 8 10 1011.0 - 0.0
14/10:30pm 10.8 7.1 9.4 91 0.7 SE 19 26 10 14 1011.2 - 0.0
14/10:00pm 11.1 7.4 9.3 89 0.9 ESE 19 24 10 13 1011.7 - 0.0
14/09:30pm 11.5 7.5 9.1 85 1.2 ESE 20 28 11 15 1011.7 - 0.0
14/09:00pm 11.6 7.2 8.8 83 1.4 ESE 22 35 12 19 1011.4 1011.5 0.0
14/08:30pm 11.6 6.3 8.4 81 1.6 ESE 26 33 14 18 1010.8 - 0.0
14/08:00pm 11.8 5.7 8.4 80 1.7 ESE 30 41 16 22 1010.6 - 0.0
14/07:30pm 11.8 6.4 8.2 78 1.8 ESE 26 35 14 19 1011.2 - 0.0
14/07:00pm 12.2 6.0 8.0 75 2.1 ESE 30 39 16 21 1011.2 - 0.0
14/06:30pm 13.0 7.7 8.4 73 2.3 SE 26 33 14 18 1011.4 - 0.0
14/06:00pm 14.5 9.6 8.6 67 3.0 SE 24 33 13 18 1011.4 1011.5 0.0
14/05:30pm 16.1 11.1 9.4 64 3.5 ESE 26 37 14 20 1011.1 - 0.0
14/05:00pm 18.1 13.8 9.4 57 4.6 ESE 22 32 12 17 1011.1 - 0.0
14/04:30pm 18.7 12.5 7.8 49 5.6 ESE 30 41 16 22 1011.0 - 0.0
14/04:00pm 19.1 13.3 9.3 53 5.2 ESE 30 44 16 24 1011.0 - 0.0
14/03:30pm 19.3 12.7 8.4 49 5.7 ESE 33 48 18 26 1011.3 - 0.0
14/03:00pm 19.9 14.0 7.7 45 6.3 E 28 41 15 22 1011.9 1012.0 0.0

Other Formats:

Comma delimited format used in spreadsheet applications
http://www.bom.gov.au/fwo/IDS60801/IDS60801.95805.axf

JavaScript Object Notation format (JSON) in row-major order
http://www.bom.gov.au/fwo/IDS60801/IDS60801.95805.json